Time;durP1;ratioP1;P1;durP2;ratioP2;P2;SDS_P1;SDS_P2;PMS_P1;PMS_P2;Temp;Humidity;BMP_temperature;BMP_pressure;BME280_temperature;BME280_humidity;BME280_pressure;Samples;Min_cycle;Max_cycle;Signal;HPM_P1;HPM_P2
2023/03/26 00:00:14;;;;;;;2.13;1.93;;;;;;;;;;5066001;28;20388;-52
2023/03/26 00:02:40;;;;;;;2.57;2.40;;;;;;;;;;5063331;28;20270;-52
2023/03/26 00:05:09;;;;;;;4.03;2.00;;;;;;;;;;5065229;28;20725;-51
2023/03/26 00:07:35;;;;;;;2.30;2.10;;;;;;;;;;5065198;28;20321;-52
2023/03/26 00:10:02;;;;;;;2.13;1.93;;;;;;;;;;5064930;28;20234;-53
2023/03/26 00:12:28;;;;;;;3.97;1.73;;;;;;;;;;5062754;28;20238;-52
2023/03/26 00:14:55;;;;;;;3.23;2.20;;;;;;;;;;5065551;28;20231;-54
2023/03/26 00:17:21;;;;;;;2.43;1.63;;;;;;;;;;5068273;28;20833;-51
2023/03/26 00:19:48;;;;;;;3.27;1.77;;;;;;;;;;5068366;28;20726;-51
2023/03/26 00:22:16;;;;;;;4.57;2.40;;;;;;;;;;5067906;28;20700;-51
2023/03/26 00:24:44;;;;;;;2.23;2.00;;;;;;;;;;5062470;28;20266;-52
2023/03/26 00:27:11;;;;;;;3.83;2.47;;;;;;;;;;5063604;28;20289;-54
2023/03/26 00:29:38;;;;;;;1.73;1.63;;;;;;;;;;5062920;28;20243;-53
2023/03/26 00:32:05;;;;;;;1.60;1.37;;;;;;;;;;5056839;28;20664;-53
2023/03/26 00:34:33;;;;;;;2.83;1.30;;;;;;;;;;5064423;28;20227;-52
2023/03/26 00:37:01;;;;;;;1.70;1.40;;;;;;;;;;5065768;28;20307;-53
2023/03/26 00:39:32;;;;;;;1.83;1.30;;;;;;;;;;5062627;28;20922;-53
2023/03/26 00:41:58;;;;;;;3.90;1.30;;;;;;;;;;5065073;28;20243;-53
2023/03/26 00:44:25;;;;;;;2.30;1.27;;;;;;;;;;5063105;28;20322;-53
2023/03/26 00:46:54;;;;;;;3.03;1.50;;;;;;;;;;5065117;28;20239;-52
2023/03/26 00:49:20;;;;;;;3.53;1.37;;;;;;;;;;5064540;28;20310;-52
2023/03/26 00:51:47;;;;;;;1.70;1.20;;;;;;;;;;5066130;28;20243;-51
2023/03/26 00:54:13;;;;;;;3.13;1.13;;;;;;;;;;5068446;28;20243;-53
2023/03/26 00:56:41;;;;;;;2.17;1.03;;;;;;;;;;5063261;28;20235;-52
2023/03/26 00:59:08;;;;;;;1.10;1.00;;;;;;;;;;5064314;28;20242;-52
2023/03/26 01:01:34;;;;;;;0.90;0.90;;;;;;;;;;5062158;28;20271;-55
2023/03/26 01:04:16;;;;;;;2.83;0.97;;;;;;;;;;5063443;28;20230;-52
2023/03/26 01:06:44;;;;;;;1.90;1.23;;;;;;;;;;5063279;28;20227;-53
2023/03/26 01:09:14;;;;;;;3.73;1.37;;;;;;;;;;5064779;28;20242;-53
2023/03/26 01:11:42;;;;;;;2.17;0.97;;;;;;;;;;5062536;28;20745;-52
2023/03/26 01:14:10;;;;;;;2.00;1.50;;;;;;;;;;5064260;28;20266;-52
2023/03/26 01:16:37;;;;;;;2.40;1.30;;;;;;;;;;5065262;28;20798;-52
2023/03/26 01:19:09;;;;;;;4.53;1.50;;;;;;;;;;5061175;28;20249;-52
2023/03/26 01:21:37;;;;;;;2.10;1.80;;;;;;;;;;5063740;28;20243;-52
2023/03/26 01:24:05;;;;;;;3.73;1.73;;;;;;;;;;5063201;28;20608;-53
2023/03/26 01:26:47;;;;;;;2.50;1.87;;;;;;;;;;5058629;28;20239;-51
2023/03/26 01:29:19;;;;;;;1.50;1.40;;;;;;;;;;5064102;28;20239;-52
2023/03/26 01:31:49;;;;;;;2.17;1.60;;;;;;;;;;5058240;28;20235;-53
2023/03/26 01:34:20;;;;;;;2.77;1.80;;;;;;;;;;5065100;28;20229;-52
2023/03/26 01:36:48;;;;;;;1.27;1.17;;;;;;;;;;5066857;28;20916;-53
2023/03/26 01:39:20;;;;;;;1.80;1.33;;;;;;;;;;5066974;28;20227;-53
2023/03/26 01:41:48;;;;;;;1.03;0.93;;;;;;;;;;5067014;28;20310;-61
2023/03/26 01:44:18;;;;;;;6.47;1.70;;;;;;;;;;5061777;28;20253;-59
2023/03/26 01:46:45;;;;;;;1.60;1.30;;;;;;;;;;5061398;28;20235;-56
2023/03/26 01:49:12;;;;;;;2.70;0.90;;;;;;;;;;5059649;28;20231;-57
2023/03/26 01:51:40;;;;;;;0.87;0.87;;;;;;;;;;5066740;28;20223;-56
2023/03/26 01:54:09;;;;;;;1.27;0.97;;;;;;;;;;5064803;28;20236;-56
2023/03/26 01:56:44;;;;;;;2.20;0.67;;;;;;;;;;5066750;28;20234;-54
2023/03/26 01:59:18;;;;;;;0.90;0.90;;;;;;;;;;5076574;28;20344;-54
2023/03/26 02:01:47;;;;;;;2.00;1.00;;;;;;;;;;5082057;28;20281;-54
2023/03/26 02:04:18;;;;;;;4.03;0.97;;;;;;;;;;5069422;28;20241;-52
2023/03/26 02:06:46;;;;;;;2.23;1.17;;;;;;;;;;5063345;28;20241;-54
2023/03/26 02:09:14;;;;;;;1.90;1.10;;;;;;;;;;5058740;28;20588;-53
2023/03/26 02:11:43;;;;;;;1.00;1.00;;;;;;;;;;5065528;28;20243;-53
2023/03/26 02:14:10;;;;;;;3.73;1.13;;;;;;;;;;5065696;28;20235;-52
2023/03/26 02:16:36;;;;;;;1.77;1.20;;;;;;;;;;5065627;28;20324;-53
2023/03/26 02:19:03;;;;;;;3.10;1.50;;;;;;;;;;5065030;28;20318;-53
2023/03/26 02:21:32;;;;;;;2.83;1.20;;;;;;;;;;5065128;28;20235;-54
2023/03/26 02:24:02;;;;;;;1.37;1.30;;;;;;;;;;5066386;28;20786;-57
2023/03/26 02:26:29;;;;;;;2.20;2.00;;;;;;;;;;5070898;28;20301;-53
2023/03/26 02:28:57;;;;;;;3.73;1.83;;;;;;;;;;5069131;28;20306;-54
2023/03/26 02:31:25;;;;;;;2.90;1.90;;;;;;;;;;5075011;28;20237;-53
2023/03/26 02:33:51;;;;;;;1.93;1.53;;;;;;;;;;5067695;28;20235;-53
2023/03/26 02:36:20;;;;;;;3.23;1.70;;;;;;;;;;5069208;28;20240;-53
2023/03/26 02:38:47;;;;;;;4.00;1.70;;;;;;;;;;5066106;28;20647;-52
2023/03/26 02:41:13;;;;;;;5.40;1.63;;;;;;;;;;5072088;28;20762;-53
2023/03/26 02:43:40;;;;;;;1.83;1.70;;;;;;;;;;5065346;28;20265;-53
2023/03/26 02:46:07;;;;;;;2.83;2.63;;;;;;;;;;5061560;28;20343;-53
2023/03/26 02:48:35;;;;;;;2.27;1.63;;;;;;;;;;5063947;28;20235;-53
2023/03/26 02:51:01;;;;;;;4.30;1.83;;;;;;;;;;5065358;28;20222;-53
2023/03/26 02:53:28;;;;;;;2.87;2.03;;;;;;;;;;5054206;28;20940;-52
2023/03/26 02:55:55;;;;;;;5.50;2.03;;;;;;;;;;5060912;28;20274;-51
2023/03/26 02:58:24;;;;;;;1.90;1.47;;;;;;;;;;5063226;28;20885;-53
2023/03/26 03:00:53;;;;;;;2.33;1.47;;;;;;;;;;5063433;28;20284;-53
2023/03/26 03:03:23;;;;;;;3.07;1.80;;;;;;;;;;5062843;28;20299;-55
2023/03/26 03:05:50;;;;;;;1.93;1.70;;;;;;;;;;5059471;28;20234;-52
2023/03/26 03:08:18;;;;;;;3.67;1.70;;;;;;;;;;5061712;28;20732;-52
2023/03/26 03:10:44;;;;;;;2.40;2.23;;;;;;;;;;5063301;28;20327;-53
2023/03/26 03:13:11;;;;;;;2.63;1.93;;;;;;;;;;5064773;28;20648;-53
2023/03/26 03:15:39;;;;;;;4.50;2.13;;;;;;;;;;5064563;28;20845;-53
2023/03/26 03:18:05;;;;;;;1.70;1.43;;;;;;;;;;5058186;28;20243;-52
2023/03/26 03:20:34;;;;;;;3.00;1.70;;;;;;;;;;5061059;28;20706;-52
2023/03/26 03:23:01;;;;;;;1.70;1.60;;;;;;;;;;5064656;28;20318;-52
2023/03/26 03:25:27;;;;;;;3.37;2.03;;;;;;;;;;5060589;28;20235;-52
2023/03/26 03:27:54;;;;;;;2.93;2.10;;;;;;;;;;5057558;28;20309;-52
2023/03/26 03:30:20;;;;;;;2.87;2.30;;;;;;;;;;5062599;28;20230;-52
2023/03/26 03:32:47;;;;;;;3.87;2.07;;;;;;;;;;5066624;28;20233;-52
2023/03/26 03:35:13;;;;;;;3.20;2.10;;;;;;;;;;5062663;28;20226;-52
2023/03/26 03:37:42;;;;;;;4.80;2.50;;;;;;;;;;5069127;28;20313;-53
2023/03/26 03:40:09;;;;;;;2.90;2.60;;;;;;;;;;5060909;28;20230;-51
2023/03/26 03:42:36;;;;;;;2.80;1.80;;;;;;;;;;5067190;28;20289;-52
2023/03/26 03:45:02;;;;;;;6.53;2.20;;;;;;;;;;5060046;28;20227;-52
2023/03/26 03:47:29;;;;;;;2.30;1.80;;;;;;;;;;5068200;28;20613;-52
2023/03/26 03:49:58;;;;;;;3.93;2.13;;;;;;;;;;5064345;28;20241;-53
2023/03/26 03:52:25;;;;;;;2.40;2.17;;;;;;;;;;5063288;28;20223;-53
2023/03/26 03:54:55;;;;;;;3.17;2.00;;;;;;;;;;5062104;28;20235;-52
2023/03/26 03:57:21;;;;;;;1.77;1.67;;;;;;;;;;5061866;28;20231;-52
2023/03/26 03:59:48;;;;;;;1.70;1.50;;;;;;;;;;5071121;28;20227;-53
2023/03/26 04:02:19;;;;;;;2.47;1.70;;;;;;;;;;5069675;28;20235;-53
2023/03/26 04:04:48;;;;;;;2.60;1.77;;;;;;;;;;5068962;28;20254;-52
2023/03/26 04:07:15;;;;;;;1.87;1.77;;;;;;;;;;5073102;28;20328;-53
2023/03/26 04:09:41;;;;;;;2.53;1.63;;;;;;;;;;5079925;28;20261;-53
2023/03/26 04:12:09;;;;;;;1.43;1.20;;;;;;;;;;5065447;28;20239;-52
2023/03/26 04:14:36;;;;;;;3.33;1.93;;;;;;;;;;5061586;28;20231;-52
2023/03/26 04:17:04;;;;;;;4.13;1.70;;;;;;;;;;5060646;28;20763;-53
2023/03/26 04:19:30;;;;;;;4.13;2.17;;;;;;;;;;5068611;28;20223;-51
2023/03/26 04:22:01;;;;;;;2.53;1.80;;;;;;;;;;5070360;28;20292;-53
2023/03/26 04:24:27;;;;;;;2.93;1.50;;;;;;;;;;5062238;28;20236;-51
2023/03/26 04:26:55;;;;;;;3.20;1.60;;;;;;;;;;5066738;28;20306;-53
2023/03/26 04:29:26;;;;;;;3.63;1.80;;;;;;;;;;5061835;28;20246;-51
2023/03/26 04:31:57;;;;;;;2.83;1.40;;;;;;;;;;5062455;28;20323;-51
2023/03/26 04:34:24;;;;;;;6.13;1.60;;;;;;;;;;5053496;28;20236;-54
2023/03/26 04:36:53;;;;;;;3.03;1.60;;;;;;;;;;5063741;28;20235;-52
2023/03/26 04:39:20;;;;;;;5.00;1.90;;;;;;;;;;5063001;28;20706;-54
2023/03/26 04:41:47;;;;;;;1.77;1.30;;;;;;;;;;5062948;28;20330;-52
2023/03/26 04:44:21;;;;;;;2.03;1.40;;;;;;;;;;5063744;28;20245;-52
2023/03/26 04:46:48;;;;;;;3.30;1.37;;;;;;;;;;5057104;28;20949;-52
2023/03/26 04:49:15;;;;;;;4.00;1.37;;;;;;;;;;5058244;28;20232;-52
2023/03/26 04:51:43;;;;;;;2.90;1.57;;;;;;;;;;5060829;28;20764;-52
2023/03/26 04:54:11;;;;;;;3.37;1.30;;;;;;;;;;5063038;28;20234;-52
2023/03/26 04:56:42;;;;;;;1.40;1.17;;;;;;;;;;5065450;28;20258;-53
2023/03/26 04:59:09;;;;;;;2.90;1.57;;;;;;;;;;5063323;28;20231;-53
2023/03/26 05:01:36;;;;;;;2.97;1.33;;;;;;;;;;5063849;28;20296;-52
2023/03/26 05:04:04;;;;;;;3.27;1.40;;;;;;;;;;5059997;28;20235;-52
2023/03/26 05:06:33;;;;;;;1.60;1.10;;;;;;;;;;5062097;28;20230;-53
2023/03/26 05:09:00;;;;;;;2.00;1.80;;;;;;;;;;5063968;28;20227;-54
2023/03/26 05:11:27;;;;;;;3.70;1.60;;;;;;;;;;5069831;28;20230;-53
2023/03/26 05:13:53;;;;;;;1.57;1.47;;;;;;;;;;5063895;28;20250;-54
2023/03/26 05:16:20;;;;;;;2.67;1.80;;;;;;;;;;5065327;28;20284;-53
2023/03/26 05:18:47;;;;;;;3.67;2.37;;;;;;;;;;5063316;28;20234;-52
2023/03/26 05:21:15;;;;;;;1.57;1.30;;;;;;;;;;5067389;28;20240;-52
2023/03/26 05:23:41;;;;;;;4.77;1.50;;;;;;;;;;5063814;28;20246;-53
2023/03/26 05:26:09;;;;;;;4.77;1.37;;;;;;;;;;5058219;28;20235;-52
2023/03/26 05:28:35;;;;;;;5.07;1.63;;;;;;;;;;5067003;28;20226;-52
2023/03/26 05:31:02;;;;;;;2.73;1.47;;;;;;;;;;5071202;28;20234;-53
2023/03/26 05:33:28;;;;;;;4.97;2.10;;;;;;;;;;5064329;28;20457;-52
2023/03/26 05:36:01;;;;;;;4.20;2.40;;;;;;;;;;5068347;28;20701;-52
2023/03/26 05:38:29;;;;;;;4.23;1.77;;;;;;;;;;5065793;28;20227;-53
2023/03/26 05:40:59;;;;;;;1.57;1.47;;;;;;;;;;5060818;28;20258;-53
2023/03/26 05:43:26;;;;;;;1.63;1.53;;;;;;;;;;5064030;28;20227;-52
2023/03/26 05:45:52;;;;;;;1.33;1.23;;;;;;;;;;5063633;28;20246;-51
2023/03/26 05:48:20;;;;;;;2.80;1.50;;;;;;;;;;5066447;28;20740;-53
2023/03/26 05:50:47;;;;;;;1.80;1.70;;;;;;;;;;5067608;28;20237;-53
2023/03/26 05:53:14;;;;;;;1.50;1.27;;;;;;;;;;5069646;28;20239;-53
2023/03/26 05:55:44;;;;;;;3.60;1.93;;;;;;;;;;5070089;28;20227;-52
2023/03/26 05:58:11;;;;;;;3.50;1.97;;;;;;;;;;5058500;28;21198;-52
2023/03/26 06:00:38;;;;;;;2.47;1.60;;;;;;;;;;5061865;28;20288;-52
2023/03/26 06:03:04;;;;;;;2.60;1.50;;;;;;;;;;5058030;28;20219;-52
2023/03/26 06:05:33;;;;;;;4.80;1.50;;;;;;;;;;5064098;28;20591;-53
2023/03/26 06:07:59;;;;;;;1.97;1.50;;;;;;;;;;5064483;28;20237;-53
2023/03/26 06:10:26;;;;;;;1.80;1.70;;;;;;;;;;5064125;28;20231;-53
2023/03/26 06:12:54;;;;;;;3.40;1.60;;;;;;;;;;5063474;28;20239;-56
2023/03/26 06:15:20;;;;;;;3.23;1.40;;;;;;;;;;5066214;28;20237;-52
2023/03/26 06:17:47;;;;;;;2.83;1.43;;;;;;;;;;5065081;28;20272;-56
2023/03/26 06:20:14;;;;;;;1.93;1.83;;;;;;;;;;5067562;28;20257;-53
2023/03/26 06:22:41;;;;;;;3.30;1.40;;;;;;;;;;5065427;28;20643;-53
2023/03/26 06:25:08;;;;;;;3.03;1.20;;;;;;;;;;5062212;28;20700;-53
2023/03/26 06:27:34;;;;;;;2.30;1.37;;;;;;;;;;5060059;28;20661;-52
2023/03/26 06:30:02;;;;;;;2.87;1.50;;;;;;;;;;5062320;28;20235;-54
2023/03/26 06:32:29;;;;;;;4.00;1.40;;;;;;;;;;5062585;28;20327;-53
2023/03/26 06:34:55;;;;;;;2.80;1.10;;;;;;;;;;5056020;28;20231;-53
2023/03/26 06:37:22;;;;;;;6.03;2.13;;;;;;;;;;5060245;28;20239;-54
2023/03/26 06:39:48;;;;;;;5.17;0.93;;;;;;;;;;5063991;28;20729;-51
2023/03/26 06:42:15;;;;;;;2.60;1.20;;;;;;;;;;5071725;28;20242;-52
2023/03/26 06:44:41;;;;;;;1.17;1.13;;;;;;;;;;5067735;28;20330;-53
2023/03/26 06:47:09;;;;;;;4.90;1.60;;;;;;;;;;5062000;28;20649;-53
2023/03/26 06:49:36;;;;;;;1.50;1.40;;;;;;;;;;5068827;28;20302;-52
2023/03/26 06:52:03;;;;;;;3.60;1.63;;;;;;;;;;5058992;28;20952;-52
2023/03/26 06:54:30;;;;;;;5.43;1.87;;;;;;;;;;5062348;28;20338;-52
2023/03/26 06:56:57;;;;;;;3.50;1.70;;;;;;;;;;5065509;28;20223;-53
2023/03/26 06:59:24;;;;;;;1.83;1.40;;;;;;;;;;5057939;28;20319;-52
2023/03/26 07:01:50;;;;;;;2.27;2.07;;;;;;;;;;5065861;28;22559;-54
2023/03/26 07:04:18;;;;;;;1.93;1.50;;;;;;;;;;5061145;28;20231;-52
2023/03/26 07:06:45;;;;;;;3.10;1.60;;;;;;;;;;5066654;28;20238;-53
2023/03/26 07:09:11;;;;;;;5.07;1.70;;;;;;;;;;5070526;28;20289;-53
2023/03/26 07:11:38;;;;;;;0.90;0.90;;;;;;;;;;5070532;28;20239;-51
2023/03/26 07:14:04;;;;;;;1.53;1.10;;;;;;;;;;5073695;28;20730;-55
2023/03/26 07:16:31;;;;;;;1.23;1.00;;;;;;;;;;5079756;28;20253;-52
2023/03/26 07:18:58;;;;;;;4.90;1.60;;;;;;;;;;5064048;28;20610;-52
2023/03/26 07:21:26;;;;;;;2.43;1.90;;;;;;;;;;5064621;28;20282;-52
2023/03/26 07:23:53;;;;;;;1.30;1.00;;;;;;;;;;5064378;28;20239;-53
2023/03/26 07:26:25;;;;;;;4.17;1.07;;;;;;;;;;5061383;28;20228;-53
2023/03/26 07:28:55;;;;;;;2.17;1.30;;;;;;;;;;5061982;28;20223;-53
2023/03/26 07:31:27;;;;;;;1.93;1.70;;;;;;;;;;5069021;28;20259;-54
2023/03/26 07:33:57;;;;;;;2.97;1.70;;;;;;;;;;5067847;28;20234;-53
2023/03/26 07:36:29;;;;;;;2.60;1.20;;;;;;;;;;5067236;28;20231;-57
2023/03/26 07:39:04;;;;;;;2.70;1.17;;;;;;;;;;5071082;28;20330;-52
2023/03/26 07:41:36;;;;;;;3.50;1.13;;;;;;;;;;5063114;28;20237;-52
2023/03/26 07:44:07;;;;;;;5.90;1.33;;;;;;;;;;5065104;28;20234;-52
2023/03/26 07:46:35;;;;;;;3.00;1.10;;;;;;;;;;5067182;28;20237;-51
2023/03/26 07:49:03;;;;;;;2.70;1.60;;;;;;;;;;5071861;28;20288;-52
2023/03/26 07:51:32;;;;;;;1.47;1.13;;;;;;;;;;5069307;28;20300;-55
2023/03/26 07:53:59;;;;;;;2.13;1.27;;;;;;;;;;5073060;28;20247;-51
2023/03/26 07:56:30;;;;;;;1.30;1.20;;;;;;;;;;5070513;28;20230;-57
2023/03/26 07:59:03;;;;;;;4.30;1.27;;;;;;;;;;5072366;28;20227;-57
2023/03/26 08:01:40;;;;;;;1.73;1.20;;;;;;;;;;5069127;28;20227;-55
2023/03/26 08:04:26;;;;;;;2.50;1.30;;;;;;;;;;5067921;28;20238;-52
2023/03/26 08:06:56;;;;;;;4.03;1.57;;;;;;;;;;5055719;28;20231;-58
2023/03/26 08:09:28;;;;;;;3.13;1.23;;;;;;;;;;5069593;28;20226;-56
2023/03/26 08:11:57;;;;;;;2.23;1.33;;;;;;;;;;5068972;28;20235;-53
2023/03/26 08:14:40;;;;;;;4.07;1.50;;;;;;;;;;5066779;28;20234;-55
2023/03/26 08:17:09;;;;;;;1.50;1.33;;;;;;;;;;5070075;28;20224;-53
2023/03/26 08:19:47;;;;;;;1.90;1.80;;;;;;;;;;5064201;28;20227;-52
2023/03/26 08:22:19;;;;;;;5.50;1.63;;;;;;;;;;5066058;28;20245;-52
2023/03/26 08:24:52;;;;;;;2.73;1.50;;;;;;;;;;5058586;28;20239;-51
2023/03/26 08:27:22;;;;;;;5.20;2.67;;;;;;;;;;5066800;28;20909;-53
2023/03/26 08:29:53;;;;;;;1.30;1.17;;;;;;;;;;5064295;28;20258;-53
2023/03/26 08:32:20;;;;;;;2.80;1.20;;;;;;;;;;5062513;28;20246;-54
2023/03/26 08:34:47;;;;;;;3.60;1.57;;;;;;;;;;5062429;28;20913;-51
2023/03/26 08:37:13;;;;;;;6.97;2.97;;;;;;;;;;5068114;28;20382;-52
2023/03/26 08:39:41;;;;;;;2.37;1.37;;;;;;;;;;5068947;22;20235;-51
2023/03/26 08:42:26;;;;;;;5.07;2.00;;;;;;;;;;5035255;28;20250;-52
2023/03/26 08:45:08;;;;;;;3.47;1.80;;;;;;;;;;5032359;28;20228;-53
2023/03/26 08:47:54;;;;;;;3.93;1.97;;;;;;;;;;5033727;28;20224;-51
2023/03/26 08:50:31;;;;;;;6.00;1.83;;;;;;;;;;5027186;28;20239;-53
2023/03/26 08:53:15;;;;;;;3.23;1.47;;;;;;;;;;5025152;28;20577;-51
2023/03/26 08:55:49;;;;;;;4.03;2.03;;;;;;;;;;5006740;28;20252;-51
2023/03/26 08:58:34;;;;;;;4.47;1.33;;;;;;;;;;5014764;28;20236;-52
2023/03/26 09:01:13;;;;;;;4.60;1.37;;;;;;;;;;5024577;28;20229;-51
2023/03/26 09:04:07;;;;;;;4.70;1.83;;;;;;;;;;5020681;28;20232;-51
2023/03/26 09:06:48;;;;;;;3.87;1.17;;;;;;;;;;4976277;28;20250;-51
2023/03/26 09:09:29;;;;;;;2.70;1.53;;;;;;;;;;4973917;28;20290;-51
2023/03/26 09:12:07;;;;;;;7.60;2.27;;;;;;;;;;5017017;28;20889;-50
2023/03/26 09:14:50;;;;;;;3.50;1.77;;;;;;;;;;5022154;28;20232;-52
2023/03/26 09:17:32;;;;;;;5.33;1.10;;;;;;;;;;5009653;28;20766;-52
2023/03/26 09:20:07;;;;;;;4.37;2.00;;;;;;;;;;5018154;28;20244;-51
2023/03/26 09:22:53;;;;;;;1.27;1.17;;;;;;;;;;5027472;28;20228;-52
2023/03/26 09:25:40;;;;;;;2.33;1.73;;;;;;;;;;5022808;28;20258;-51
2023/03/26 09:28:37;;;;;;;4.80;2.00;;;;;;;;;;5008526;28;20316;-51
2023/03/26 09:31:15;;;;;;;4.47;2.03;;;;;;;;;;4943153;28;20254;-51
2023/03/26 09:33:55;;;;;;;2.73;1.53;;;;;;;;;;5001226;28;20240;-52
2023/03/26 09:36:32;;;;;;;1.23;1.17;;;;;;;;;;5030711;28;20235;-51
2023/03/26 09:39:04;;;;;;;3.07;2.00;;;;;;;;;;5021554;28;20239;-51
2023/03/26 09:41:36;;;;;;;2.83;1.60;;;;;;;;;;5010777;28;20807;-52
2023/03/26 09:44:17;;;;;;;5.20;1.80;;;;;;;;;;5013414;28;20260;-51
2023/03/26 09:46:54;;;;;;;1.97;1.50;;;;;;;;;;5024623;28;20228;-52
2023/03/26 09:49:27;;;;;;;6.87;2.00;;;;;;;;;;5015180;28;20259;-55
2023/03/26 09:52:01;;;;;;;2.23;1.67;;;;;;;;;;5029216;28;20682;-54
2023/03/26 09:54:43;;;;;;;3.10;1.70;;;;;;;;;;5032260;28;20231;-52
2023/03/26 09:57:14;;;;;;;2.77;1.77;;;;;;;;;;5026583;28;20616;-52
2023/03/26 10:00:08;;;;;;;4.33;1.77;;;;;;;;;;5022209;28;20316;-54
2023/03/26 10:02:49;;;;;;;3.47;2.87;;;;;;;;;;5014705;28;20635;-53
2023/03/26 10:05:37;;;;;;;3.53;1.67;;;;;;;;;;5020732;28;20307;-53
2023/03/26 10:08:11;;;;;;;3.20;1.30;;;;;;;;;;5015777;28;20247;-52
2023/03/26 10:10:43;;;;;;;6.13;2.40;;;;;;;;;;5010225;28;20237;-51
2023/03/26 10:13:17;;;;;;;2.50;1.90;;;;;;;;;;5004035;28;20707;-54
2023/03/26 10:15:52;;;;;;;4.60;2.27;;;;;;;;;;5008347;28;20577;-54
2023/03/26 10:18:24;;;;;;;5.90;2.70;;;;;;;;;;5014661;28;20239;-53
2023/03/26 10:20:55;;;;;;;4.07;2.57;;;;;;;;;;5021137;28;20290;-53
2023/03/26 10:23:39;;;;;;;1.97;1.83;;;;;;;;;;5020580;28;20228;-53
2023/03/26 10:26:12;;;;;;;4.20;2.33;;;;;;;;;;5031894;28;20237;-54
2023/03/26 10:28:58;;;;;;;3.23;2.10;;;;;;;;;;5032084;28;20235;-50
2023/03/26 10:31:43;;;;;;;3.47;2.27;;;;;;;;;;5007265;28;20228;-54
2023/03/26 10:34:14;;;;;;;1.90;1.80;;;;;;;;;;5007750;28;20237;-52
2023/03/26 10:36:44;;;;;;;4.47;2.23;;;;;;;;;;5002053;28;20236;-50
2023/03/26 10:39:22;;;;;;;3.60;2.37;;;;;;;;;;5020674;28;20240;-52
2023/03/26 10:41:55;;;;;;;3.43;2.47;;;;;;;;;;5019433;28;20236;-51
2023/03/26 10:44:42;;;;;;;6.53;3.80;;;;;;;;;;5008419;28;20231;-52
2023/03/26 10:47:24;;;;;;;5.40;2.40;;;;;;;;;;5006738;28;20234;-51
2023/03/26 10:50:08;;;;;;;4.33;3.13;;;;;;;;;;5020641;28;20236;-50
2023/03/26 10:52:37;;;;;;;4.57;3.43;;;;;;;;;;5009126;28;20235;-52
2023/03/26 10:55:10;;;;;;;3.40;2.30;;;;;;;;;;5022526;28;20319;-53
2023/03/26 10:57:39;;;;;;;4.40;2.37;;;;;;;;;;5028321;28;20228;-51
2023/03/26 11:00:14;;;;;;;5.00;2.50;;;;;;;;;;5030532;28;20264;-52
2023/03/26 11:02:43;;;;;;;6.33;2.40;;;;;;;;;;5016170;28;20366;-51
2023/03/26 11:05:24;;;;;;;2.87;2.43;;;;;;;;;;5023868;28;20740;-52
2023/03/26 11:07:54;;;;;;;7.70;2.07;;;;;;;;;;5026618;28;20632;-52
2023/03/26 11:10:25;;;;;;;6.73;2.73;;;;;;;;;;5034563;28;20581;-52
2023/03/26 11:12:55;;;;;;;3.33;1.93;;;;;;;;;;5007011;28;20311;-51
2023/03/26 11:15:24;;;;;;;4.23;2.27;;;;;;;;;;5023748;28;20630;-51
2023/03/26 11:17:55;;;;;;;4.87;2.50;;;;;;;;;;5023760;28;20232;-52
2023/03/26 11:20:28;;;;;;;9.70;2.53;;;;;;;;;;5021838;28;20229;-53
2023/03/26 11:23:01;;;;;;;5.57;2.20;;;;;;;;;;5012605;28;20609;-51
2023/03/26 11:25:32;;;;;;;8.53;2.67;;;;;;;;;;5030548;28;20243;-50
2023/03/26 11:28:08;;;;;;;3.37;2.33;;;;;;;;;;5029637;28;20224;-51
2023/03/26 11:30:38;;;;;;;4.43;1.87;;;;;;;;;;5012657;28;20234;-50
2023/03/26 11:33:06;;;;;;;3.90;2.17;;;;;;;;;;5021466;28;20771;-52
2023/03/26 11:35:35;;;;;;;3.73;2.37;;;;;;;;;;5026912;28;20282;-53
2023/03/26 11:38:04;;;;;;;5.33;2.07;;;;;;;;;;5024222;28;20256;-50
2023/03/26 11:40:32;;;;;;;3.93;2.70;;;;;;;;;;5022802;28;20337;-50
2023/03/26 11:43:00;;;;;;;4.73;2.40;;;;;;;;;;5015761;28;21070;-52
2023/03/26 11:45:28;;;;;;;4.70;2.40;;;;;;;;;;5015234;28;20232;-52
2023/03/26 11:47:57;;;;;;;5.60;2.30;;;;;;;;;;5015507;28;20611;-51
2023/03/26 11:50:25;;;;;;;3.30;2.37;;;;;;;;;;5008936;28;20661;-50
2023/03/26 11:52:54;;;;;;;4.03;2.07;;;;;;;;;;5023701;28;20311;-52
2023/03/26 11:55:22;;;;;;;7.90;2.80;;;;;;;;;;5017722;28;20231;-51
2023/03/26 11:57:52;;;;;;;3.67;2.57;;;;;;;;;;5017874;28;20613;-52
2023/03/26 12:00:20;;;;;;;3.70;2.73;;;;;;;;;;5021183;28;20233;-51
2023/03/26 12:02:47;;;;;;;3.40;2.57;;;;;;;;;;5003798;28;20748;-50
2023/03/26 12:05:16;;;;;;;5.73;2.63;;;;;;;;;;5018857;28;20267;-52
2023/03/26 12:07:47;;;;;;;5.93;3.40;;;;;;;;;;4997833;28;20601;-52
2023/03/26 12:10:23;;;;;;;3.47;2.10;;;;;;;;;;5024929;28;25239;-52
2023/03/26 12:12:52;;;;;;;6.40;2.90;;;;;;;;;;5024084;28;20435;-52
2023/03/26 12:15:19;;;;;;;3.17;2.47;;;;;;;;;;5022342;28;20236;-51
2023/03/26 12:17:47;;;;;;;2.33;2.13;;;;;;;;;;5023293;28;20235;-51
2023/03/26 12:20:30;;;;;;;4.37;2.17;;;;;;;;;;5030367;28;20733;-51
2023/03/26 12:22:58;;;;;;;3.17;2.40;;;;;;;;;;5007971;28;20253;-52
2023/03/26 12:25:26;;;;;;;3.00;2.03;;;;;;;;;;5016016;28;20657;-51
2023/03/26 12:28:01;;;;;;;7.63;3.33;;;;;;;;;;5006474;28;20229;-52
2023/03/26 12:30:29;;;;;;;4.70;2.13;;;;;;;;;;5005856;28;20228;-51
2023/03/26 12:32:57;;;;;;;5.17;2.23;;;;;;;;;;4999600;28;20241;-52
2023/03/26 12:35:25;;;;;;;2.23;1.77;;;;;;;;;;5019561;28;20290;-52
2023/03/26 12:37:52;;;;;;;5.17;2.30;;;;;;;;;;5025856;28;20232;-52
2023/03/26 12:40:32;;;;;;;3.83;2.20;;;;;;;;;;5024088;28;20232;-50
2023/03/26 12:42:59;;;;;;;6.27;2.10;;;;;;;;;;5012489;28;20856;-51
2023/03/26 12:45:29;;;;;;;1.80;1.70;;;;;;;;;;5017303;28;21721;-51
2023/03/26 12:47:56;;;;;;;4.50;2.60;;;;;;;;;;5019050;28;20239;-51
2023/03/26 12:50:27;;;;;;;3.10;1.80;;;;;;;;;;5020916;28;20232;-50
2023/03/26 12:53:02;;;;;;;3.13;2.23;;;;;;;;;;5022886;28;20233;-50
2023/03/26 12:55:36;;;;;;;4.50;1.90;;;;;;;;;;5019416;28;20264;-52
2023/03/26 12:58:07;;;;;;;2.07;1.37;;;;;;;;;;5018547;28;20689;-52
2023/03/26 13:00:40;;;;;;;4.47;1.60;;;;;;;;;;5018996;28;20244;-51
2023/03/26 13:03:30;;;;;;;3.60;1.65;;;;;;;;;;5019987;28;20243;-52
2023/03/26 13:06:03;;;;;;;3.47;1.25;;;;;;;;;;5022755;28;20253;-52
2023/03/26 13:08:39;;;;;;;3.33;1.30;;;;;;;;;;5021865;28;20236;-51
2023/03/26 13:11:10;;;;;;;1.13;0.90;;;;;;;;;;5017974;28;20597;-50
2023/03/26 13:13:45;;;;;;;3.30;1.90;;;;;;;;;;5021761;28;20747;-51
2023/03/26 13:16:16;;;;;;;1.08;1.05;;;;;;;;;;5014630;28;20240;-52
2023/03/26 13:18:47;;;;;;;1.83;1.73;;;;;;;;;;5017863;28;20243;-52
2023/03/26 13:21:19;;;;;;;3.57;1.93;;;;;;;;;;5018577;28;20263;-51
2023/03/26 13:23:51;;;;;;;4.13;1.10;;;;;;;;;;5020225;28;20229;-51
2023/03/26 13:26:39;;;;;;;3.87;1.10;;;;;;;;;;5019369;28;20244;-50
2023/03/26 13:29:11;;;;;;;1.43;1.10;;;;;;;;;;5024259;28;20244;-50
2023/03/26 13:31:42;;;;;;;1.17;0.90;;;;;;;;;;5024216;28;20232;-52
2023/03/26 13:34:16;;;;;;;3.07;1.40;;;;;;;;;;5026235;28;20376;-51
2023/03/26 13:36:45;;;;;;;1.50;1.10;;;;;;;;;;5026736;28;20754;-51
2023/03/26 13:39:21;;;;;;;6.50;2.10;;;;;;;;;;5026365;28;20244;-53
2023/03/26 13:41:56;;;;;;;2.63;1.50;;;;;;;;;;5028829;28;20232;-51
2023/03/26 13:44:31;;;;;;;3.43;1.10;;;;;;;;;;5018566;28;20236;-51
2023/03/26 13:47:00;;;;;;;3.03;1.40;;;;;;;;;;5025455;28;20251;-51
2023/03/26 13:49:29;;;;;;;4.37;1.37;;;;;;;;;;5021207;28;20323;-52
2023/03/26 13:51:58;;;;;;;3.27;1.90;;;;;;;;;;5012421;28;20232;-52
2023/03/26 13:54:28;;;;;;;1.03;1.03;;;;;;;;;;5009132;28;20260;-52
2023/03/26 13:56:58;;;;;;;1.70;1.33;;;;;;;;;;5021231;28;20351;-52
2023/03/26 13:59:29;;;;;;;2.35;1.30;;;;;;;;;;5009516;28;20808;-52
2023/03/26 14:02:00;;;;;;;6.20;1.77;;;;;;;;;;5017508;28;20781;-53
2023/03/26 14:04:31;;;;;;;3.60;1.40;;;;;;;;;;5031391;28;20236;-51
2023/03/26 14:07:01;;;;;;;2.50;1.50;;;;;;;;;;5035299;28;20242;-50
2023/03/26 14:09:30;;;;;;;5.30;1.45;;;;;;;;;;5034918;28;20854;-52
2023/03/26 14:12:09;;;;;;;3.87;1.63;;;;;;;;;;5035378;28;20262;-54
2023/03/26 14:14:40;;;;;;;3.33;1.60;;;;;;;;;;5040376;28;20300;-51
2023/03/26 14:17:12;;;;;;;2.87;1.40;;;;;;;;;;5035639;28;20271;-51
2023/03/26 14:19:53;;;;;;;2.30;1.17;;;;;;;;;;5044945;28;20266;-55
2023/03/26 14:22:27;;;;;;;2.38;1.40;;;;;;;;;;5019545;28;20232;-50
2023/03/26 14:24:58;;;;;;;3.45;1.33;;;;;;;;;;5022037;28;20225;-52
2023/03/26 14:27:32;;;;;;;2.45;1.20;;;;;;;;;;5017325;28;20265;-50
2023/03/26 14:30:15;;;;;;;3.38;1.48;;;;;;;;;;5008469;28;20229;-50
2023/03/26 14:32:49;;;;;;;2.00;1.10;;;;;;;;;;5003489;28;20241;-52
2023/03/26 14:35:22;;;;;;;2.95;1.40;;;;;;;;;;5010391;28;20785;-52
2023/03/26 14:38:02;;;;;;;3.22;1.25;;;;;;;;;;5021715;28;20260;-52
2023/03/26 14:40:30;;;;;;;1.40;1.30;;;;;;;;;;5015045;28;20311;-49
2023/03/26 14:43:11;;;;;;;2.70;1.13;;;;;;;;;;5025774;28;20239;-53
2023/03/26 14:45:44;;;;;;;3.25;1.70;;;;;;;;;;5021897;28;20727;-50
2023/03/26 14:48:29;;;;;;;2.35;1.20;;;;;;;;;;5026420;28;20239;-52
2023/03/26 14:51:01;;;;;;;4.25;1.52;;;;;;;;;;5025203;28;20228;-52
2023/03/26 14:53:29;;;;;;;1.80;1.13;;;;;;;;;;5025858;28;20231;-51
2023/03/26 14:56:11;;;;;;;2.88;1.45;;;;;;;;;;5025862;28;20232;-52
2023/03/26 14:58:52;;;;;;;5.28;1.10;;;;;;;;;;4998830;28;20287;-51
2023/03/26 15:01:23;;;;;;;2.65;1.00;;;;;;;;;;5007151;28;20314;-52
2023/03/26 15:04:09;;;;;;;2.03;1.58;;;;;;;;;;5025657;28;20479;-53